Ransomville, NY (14131)

8:47 AM EDT on May 29, 2015 (GMT -0400)
KNYRANSO3 | | Change Station
CLOSE
Current Station
Personal Weather Station
Location: Ransomville, NY
Elevation: 246 ft
Nearby Weather Stations

Elev 246 ft 43.29 °N, 78.93 °W | Updated 8 minutes ago

Partly Cloudy
Partly Cloudy
69.8 °F
Feels Like 69.8 °F
N
0.0
Wind Variable Wind from SW

Today
High -- | Low -- °F
--% Chance of Precip.
Yesterday
High -- | Low -- °F
Precip. -- in
5:40 AM 8:46 PM
Waxing Gibbous, 83% visible
Pressure 30.24 in
Visibility 7.0 miles
Clouds Scattered Clouds 22000 ft
Mostly Cloudy 28000 ft
Dew Point 59 °F
Humidity 69%
Rainfall 0.00 in
Snow Depth Not available.
UV 1 out of 12
Pollen 9.60 out of 12
Air Quality Not available.
Flu Activity Widespread
METAR KIAG 291153Z 13004KT 7SM SCT220 BKN280 17/12 A3024 RMK AO2 SLP240 T01720122 10172 20117 51001

More Conditions Fewer Conditions

Pressure 30.24 in
Visibility 7.0 miles
Clouds Scattered Clouds 22000 ft
Mostly Cloudy 28000 ft
Dew Point 59 °F
Humidity 69%
Rainfall 0.00 in
Snow Depth Not available.
UV 1 out of 12
Pollen 9.60 out of 12
Air Quality Not available.
Flu Activity Widespread
METAR KIAG 291153Z 13004KT 7SM SCT220 BKN280 17/12 A3024 RMK AO2 SLP240 T01720122 10172 20117 51001

More Conditions Fewer Conditions

10-Day Weather Forecast

Almanac

Astronomy

May. 29, 2015 Rise Set
Actual Time
Civil Twilight
Nautical Twilight
Astronomical Twilight
Moon
Length of Visible Light
Length of Day
Tomorrow will be .
, % of the Moon is Illuminated

Today's Extremes

State Highs State Lows

Community

WunderPhotos

Upload Photos

1,825,249 photos uploaded!

WunderBlogs® & News

Nearby

Air Quality

  Air Quality AQ Index Pollutant
Not available.

Snow Depth

Station Depth Elevation

Earthquake Activity

City Distance Mag. Time & Date
Minimum magnitude displayed is 2.5.

Coastal Water Temperatures

Place Temperature

Stations

Nearby Weather Stations

Station Location Temp. Windchill Dew Point Humidity Wind Precip. Elev Updated Type